Time;durP1;ratioP1;P1;durP2;ratioP2;P2;SDS_P1;SDS_P2;PMS_P1;PMS_P2;Temp;Humidity;BMP_temperature;BMP_pressure;BME280_temperature;BME280_humidity;BME280_pressure;Samples;Min_cycle;Max_cycle;Signal;HPM_P1;HPM_P2
2022/05/28 00:00:28;;;;;;;10.27;5.40;;;;;;;20.41;69.28;94655.88;5034443;28;20317;-80
2022/05/28 00:02:53;;;;;;;16.50;4.72;;;;;;;20.50;69.14;94664.91;5052171;28;20562;-80
2022/05/28 00:05:19;;;;;;;21.63;5.75;;;;;;;20.37;68.97;94654.84;5051875;28;20175;-80
2022/05/28 00:07:45;;;;;;;14.60;5.15;;;;;;;20.37;68.84;94656.69;5052110;28;20169;-80
2022/05/28 00:10:14;;;;;;;11.98;5.35;;;;;;;20.44;69.49;94665.22;5051846;28;20631;-80
2022/05/28 00:12:40;;;;;;;12.98;4.72;;;;;;;20.42;69.54;94657.47;5051649;28;20233;-80
2022/05/28 00:15:07;;;;;;;13.70;4.18;;;;;;;20.38;69.52;94656.44;5051826;28;20568;-80
2022/05/28 00:17:33;;;;;;;15.02;4.78;;;;;;;20.37;69.43;94660.19;5051787;28;20187;-80
2022/05/28 00:19:59;;;;;;;18.85;6.40;;;;;;;20.25;70.15;94633.72;5051853;28;20182;-80
2022/05/28 00:22:25;;;;;;;12.13;4.40;;;;;;;20.28;70.02;94654.59;5051693;28;20183;-80
2022/05/28 00:24:50;;;;;;;14.35;5.45;;;;;;;20.25;69.93;94647.09;5033687;28;20206;-80
2022/05/28 00:27:16;;;;;;;24.48;5.47;;;;;;;20.15;70.09;94635.69;5051739;28;20251;-80
2022/05/28 00:29:41;;;;;;;17.55;5.57;;;;;;;20.20;70.70;94646.34;5051601;28;20196;-80
2022/05/28 00:32:07;;;;;;;12.95;5.53;;;;;;;20.13;70.22;94640.50;5051677;28;20206;-80
2022/05/28 00:34:34;;;;;;;16.10;6.07;;;;;;;19.92;70.88;94621.88;5051538;28;20573;-80
2022/05/28 00:36:59;;;;;;;19.83;5.50;;;;;;;19.91;71.24;94622.16;5051705;28;20634;-80
2022/05/28 00:39:25;;;;;;;20.92;7.00;;;;;;;19.66;71.78;94595.56;5051878;28;20202;-80
2022/05/28 00:41:50;;;;;;;18.38;5.57;;;;;;;19.72;71.94;94605.16;5034040;28;20575;-80
2022/05/28 00:44:15;;;;;;;15.43;7.38;;;;;;;19.83;72.04;94618.19;5051239;28;20198;-80
2022/05/28 00:46:42;;;;;;;13.88;7.57;;;;;;;19.84;71.21;94622.47;5051567;28;20216;-80
2022/05/28 00:49:16;;;;;;;13.13;5.82;;;;;;;19.81;71.42;94611.50;5051528;28;20541;-80
2022/05/28 00:51:47;;;;;;;10.35;5.82;;;;;;;19.71;71.73;94600.91;5051504;28;20666;-80
2022/05/28 00:54:13;;;;;;;11.32;5.65;;;;;;;19.77;71.59;94602.47;5051637;28;20179;-80
2022/05/28 00:56:39;;;;;;;15.63;6.32;;;;;;;19.63;71.63;94580.91;5051507;28;20182;-80
2022/05/28 00:59:04;;;;;;;11.48;5.60;;;;;;;19.66;71.53;94591.00;5051392;28;20195;-80
2022/05/28 01:01:34;;;;;;;11.63;6.22;;;;;;;19.66;72.13;94599.03;5051986;28;20228;-80
2022/05/28 01:04:32;;;;;;;10.68;5.88;;;;;;;19.74;72.40;94627.84;5051469;28;20228;-80
2022/05/28 01:07:11;;;;;;;10.32;5.57;;;;;;;19.72;72.66;94643.34;5044373;28;20174;-78
2022/05/28 01:10:14;;;;;;;10.93;5.10;;;;;;;19.73;72.13;94650.28;5055181;28;20249;-79
2022/05/28 01:12:58;;;;;;;9.05;3.58;;;;;;;19.64;71.51;94627.06;5029984;28;20737;-80
2022/05/28 01:15:28;;;;;;;7.13;3.33;;;;;;;19.39;71.73;94620.72;5047006;28;20173;-80
2022/05/28 01:18:02;;;;;;;7.40;2.95;;;;;;;19.39;72.13;94651.94;5055664;28;20203;-81
2022/05/28 01:20:40;;;;;;;8.27;3.90;;;;;;;19.48;72.55;94701.09;5037032;28;20175;-80
2022/05/28 01:23:26;;;;;;;9.07;3.83;;;;;;;19.45;72.27;94707.75;5055148;28;20258;-80
2022/05/28 01:25:58;;;;;;;9.05;4.15;;;;;;;19.28;72.68;94677.88;5054912;28;20215;-80
2022/05/28 01:28:29;;;;;;;11.93;3.85;;;;;;;19.23;72.54;94684.00;5054890;28;20236;-80
2022/05/28 01:30:57;;;;;;;5.93;4.05;;;;;;;19.42;72.45;94707.50;5055031;28;20211;-80
2022/05/28 01:33:23;;;;;;;20.98;4.18;;;;;;;19.41;71.98;94697.88;5055115;28;20257;-80
2022/05/28 01:35:50;;;;;;;13.02;4.07;;;;;;;19.31;72.12;94689.88;5054924;28;20220;-80
2022/05/28 01:38:18;;;;;;;13.23;4.72;;;;;;;19.30;71.88;94667.72;5054766;28;20202;-80
2022/05/28 01:40:45;;;;;;;7.75;4.35;;;;;;;19.59;72.17;94697.34;5055260;28;20657;-80
2022/05/28 01:43:13;;;;;;;8.88;5.38;;;;;;;19.75;71.27;94685.53;5055162;28;20171;-80
2022/05/28 01:45:42;;;;;;;9.63;4.13;;;;;;;19.65;71.06;94685.56;5054866;28;20615;-80
2022/05/28 01:48:08;;;;;;;9.68;4.85;;;;;;;19.40;72.54;94693.59;5037007;28;20613;-80
2022/05/28 01:50:38;;;;;;;7.78;4.15;;;;;;;19.37;73.07;94705.59;5054871;28;20208;-80
2022/05/28 01:53:07;;;;;;;8.73;4.07;;;;;;;19.35;73.35;94697.09;5054879;28;20171;-80
2022/05/28 01:55:35;;;;;;;11.85;4.95;;;;;;;19.41;73.14;94695.19;5054577;28;20168;-80
2022/05/28 01:58:01;;;;;;;14.27;5.05;;;;;;;19.25;73.42;94664.25;5054762;28;20179;-80
2022/05/28 02:00:28;;;;;;;13.40;4.28;;;;;;;19.57;73.19;94699.47;5054707;28;20174;-80
2022/05/28 02:02:57;;;;;;;12.45;4.72;;;;;;;19.70;72.32;94698.94;5054415;28;20544;-80
2022/05/28 02:05:22;;;;;;;10.40;4.35;;;;;;;19.51;72.16;94663.97;5036404;28;20228;-80
2022/05/28 02:07:48;;;;;;;9.05;4.68;;;;;;;19.67;72.31;94685.31;5054262;28;20254;-80
2022/05/28 02:10:18;;;;;;;9.43;4.78;;;;;;;19.68;72.01;94685.03;5054175;28;20639;-82
2022/05/28 02:13:11;;;;;;;9.75;4.93;;;;;;;19.58;71.81;94682.38;5054282;28;20195;-82
2022/05/28 02:15:39;;;;;;;8.18;3.83;;;;;;;19.49;71.11;94684.81;5045987;28;20224;-82
2022/05/28 02:18:23;;;;;;;9.63;4.30;;;;;;;19.50;71.53;94685.59;5054400;28;20195;-82
2022/05/28 02:20:49;;;;;;;8.88;4.53;;;;;;;19.65;71.04;94680.22;5035959;28;20564;-81
2022/05/28 02:23:39;;;;;;;9.95;3.88;;;;;;;19.78;70.53;94686.88;5036032;28;20182;-81
2022/05/28 02:26:35;;;;;;;8.55;4.57;;;;;;;19.75;70.41;94679.41;5053871;28;20302;-81
2022/05/28 02:29:01;;;;;;;6.43;3.40;;;;;;;19.89;68.97;94696.47;5053803;28;20183;-81
2022/05/28 02:31:30;;;;;;;8.57;4.35;;;;;;;19.84;69.01;94683.09;5053977;28;20167;-81
2022/05/28 02:33:56;;;;;;;11.63;4.13;;;;;;;19.93;68.46;94698.31;5053746;28;20171;-81
2022/05/28 02:36:22;;;;;;;9.90;4.00;;;;;;;19.94;68.14;94691.09;5035839;28;20730;-81
2022/05/28 02:38:47;;;;;;;7.28;3.70;;;;;;;19.77;68.09;94659.34;5054029;28;20624;-81
2022/05/28 02:41:13;;;;;;;6.80;3.28;;;;;;;19.67;67.72;94635.34;5053534;28;20258;-81
2022/05/28 02:43:39;;;;;;;9.20;3.03;;;;;;;19.70;66.65;94634.03;5053784;28;20187;-81
2022/05/28 02:46:06;;;;;;;12.30;3.63;;;;;;;19.78;65.81;94636.91;5053530;28;20250;-82
2022/05/28 02:48:32;;;;;;;8.93;3.20;;;;;;;19.98;66.34;94663.53;5053505;28;20724;-81
2022/05/28 02:51:09;;;;;;;10.95;3.13;;;;;;;20.00;66.20;94649.09;5053621;28;20167;-81
2022/05/28 02:53:34;;;;;;;9.27;3.17;;;;;;;19.93;66.46;94660.09;5053131;28;20200;-81
2022/05/28 02:56:00;;;;;;;10.45;3.30;;;;;;;19.99;66.91;94675.03;5053424;28;20250;-82
2022/05/28 02:58:26;;;;;;;4.25;2.72;;;;;;;19.76;67.31;94639.06;5053129;28;20201;-82
2022/05/28 03:00:52;;;;;;;9.27;4.57;;;;;;;20.04;67.87;94676.91;5053378;28;20167;-82
2022/05/28 03:03:19;;;;;;;6.80;3.70;;;;;;;20.11;67.92;94674.72;5053174;28;20182;-82
2022/05/28 03:05:50;;;;;;;11.32;3.42;;;;;;;20.07;67.69;94655.75;5053081;28;20167;-82
2022/05/28 03:08:16;;;;;;;6.53;3.22;;;;;;;20.08;66.82;94656.56;5025610;28;20176;-81
2022/05/28 03:10:42;;;;;;;8.20;3.10;;;;;;;20.13;65.76;94667.22;5035196;28;20559;-81
2022/05/28 03:13:08;;;;;;;6.80;3.03;;;;;;;20.11;65.41;94664.03;5053038;28;20225;-81
2022/05/28 03:15:34;;;;;;;7.65;3.50;;;;;;;20.17;67.48;94660.25;5052790;28;20186;-81
2022/05/28 03:18:00;;;;;;;9.95;2.92;;;;;;;20.00;68.34;94643.75;5052466;28;20191;-83
2022/05/28 03:20:29;;;;;;;7.93;3.15;;;;;;;20.17;67.13;94679.75;5052462;28;20217;-81
2022/05/28 03:22:55;;;;;;;9.13;2.80;;;;;;;20.20;66.07;94675.75;5052485;28;20191;-81
2022/05/28 03:25:21;;;;;;;11.27;3.65;;;;;;;20.13;66.82;94648.53;5052428;28;20301;-81
2022/05/28 03:27:47;;;;;;;9.80;3.38;;;;;;;20.15;65.37;94647.16;5052476;28;20597;-79
2022/05/28 03:30:13;;;;;;;4.55;2.88;;;;;;;20.18;64.35;94646.63;5051973;28;20253;-79
2022/05/28 03:32:38;;;;;;;20.67;2.92;;;;;;;20.19;65.37;94660.78;5051988;28;20177;-79
2022/05/28 03:35:04;;;;;;;10.38;3.28;;;;;;;20.24;66.28;94661.53;5052280;28;20175;-79
2022/05/28 03:37:30;;;;;;;8.77;3.72;;;;;;;20.30;67.23;94655.13;5050576;28;20195;-79
2022/05/28 03:39:56;;;;;;;11.25;3.55;;;;;;;20.39;67.46;94671.41;5050435;28;20186;-79
2022/05/28 03:42:21;;;;;;;12.65;3.28;;;;;;;20.39;67.27;94668.72;5050457;28;20179;-79
2022/05/28 03:44:46;;;;;;;8.00;3.47;;;;;;;20.26;66.27;94655.94;5050227;28;20202;-79
2022/05/28 03:47:12;;;;;;;12.90;4.18;;;;;;;20.06;66.76;94630.13;5051395;28;20217;-80
2022/05/28 03:49:40;;;;;;;14.27;3.58;;;;;;;20.26;67.72;94661.28;5052063;28;20249;-80
2022/05/28 03:52:06;;;;;;;8.18;3.70;;;;;;;20.01;67.70;94603.41;5051708;28;20336;-80
2022/05/28 03:54:31;;;;;;;7.85;3.50;;;;;;;20.10;65.92;94611.63;5051975;28;21003;-80
2022/05/28 03:57:04;;;;;;;10.25;3.67;;;;;;;20.27;66.22;94633.47;5051887;28;20654;-80
2022/05/28 03:59:29;;;;;;;14.07;3.90;;;;;;;20.42;67.46;94636.06;5032481;28;20171;-80
2022/05/28 04:01:55;;;;;;;15.43;5.03;;;;;;;20.33;67.13;94608.28;5051791;28;20194;-81
2022/05/28 04:04:21;;;;;;;13.23;3.67;;;;;;;20.48;67.79;94621.59;5052045;28;20171;-81
2022/05/28 04:06:46;;;;;;;14.05;3.50;;;;;;;20.64;67.43;94633.78;5051896;28;20257;-81
2022/05/28 04:09:11;;;;;;;21.10;4.00;;;;;;;20.44;67.11;94636.59;5051807;28;20638;-81
2022/05/28 04:11:38;;;;;;;12.68;3.30;;;;;;;20.25;67.95;94582.94;5051926;28;20199;-81
2022/05/28 04:14:04;;;;;;;9.55;3.65;;;;;;;20.68;68.40;94631.34;5051796;28;20185;-81
2022/05/28 04:16:30;;;;;;;13.07;4.10;;;;;;;20.58;68.50;94605.47;5051452;28;20167;-81
2022/05/28 04:18:55;;;;;;;13.30;3.75;;;;;;;20.65;68.77;94635.41;5051392;28;20199;-81
2022/05/28 04:21:20;;;;;;;12.00;4.57;;;;;;;20.63;68.91;94669.66;5051375;28;20556;-81
2022/05/28 04:23:46;;;;;;;13.80;3.42;;;;;;;20.70;65.02;94696.88;5033560;28;20190;-83
2022/05/28 04:26:11;;;;;;;11.05;3.53;;;;;;;20.60;63.89;94651.47;5051428;28;20218;-83
2022/05/28 04:28:37;;;;;;;8.00;3.30;;;;;;;20.44;63.71;94604.50;5051617;28;20178;-83
2022/05/28 04:31:02;;;;;;;9.65;3.40;;;;;;;20.22;62.96;94561.31;5051442;28;20175;-83
2022/05/28 04:33:27;;;;;;;10.95;3.55;;;;;;;20.19;63.82;94578.72;5051500;28;20609;-83
2022/05/28 04:35:53;;;;;;;8.93;3.30;;;;;;;20.30;64.86;94615.00;5051351;28;20186;-84
2022/05/28 04:38:19;;;;;;;5.70;3.38;;;;;;;20.27;64.29;94623.56;5051575;28;20202;-83
2022/05/28 04:40:44;;;;;;;9.18;2.92;;;;;;;20.09;64.01;94610.03;5051533;28;20657;-84
2022/05/28 04:43:10;;;;;;;8.57;2.55;;;;;;;20.06;64.00;94618.63;5036386;28;20189;-83
2022/05/28 04:45:35;;;;;;;10.15;2.70;;;;;;;20.30;65.04;94668.47;5055694;28;20606;-81
2022/05/28 04:48:01;;;;;;;8.98;3.75;;;;;;;20.04;65.73;94610.09;5037813;28;21067;-84
2022/05/28 04:50:26;;;;;;;11.82;3.10;;;;;;;20.47;65.77;94670.81;5055515;28;20190;-84
2022/05/28 04:52:51;;;;;;;6.05;2.95;;;;;;;20.23;65.90;94616.41;5037682;28;20186;-83
2022/05/28 04:55:17;;;;;;;9.45;2.90;;;;;;;20.08;65.06;94595.06;5055807;28;20250;-83
2022/05/28 04:57:42;;;;;;;8.00;3.05;;;;;;;20.59;65.30;94671.25;5037523;28;20252;-83
2022/05/28 05:00:13;;;;;;;9.57;3.63;;;;;;;20.54;65.93;94662.47;5055433;28;20217;-83
2022/05/28 05:02:38;;;;;;;8.98;3.50;;;;;;;20.41;66.47;94669.22;5055380;28;20232;-83
2022/05/28 05:05:04;;;;;;;8.35;3.58;;;;;;;20.29;67.50;94664.22;5055196;28;20190;-83
2022/05/28 05:07:29;;;;;;;10.52;4.28;;;;;;;20.00;69.55;94655.25;5055393;28;20251;-84
2022/05/28 05:09:55;;;;;;;14.45;3.85;;;;;;;19.59;70.49;94650.06;5037411;28;20261;-84
2022/05/28 05:12:21;;;;;;;13.32;3.63;;;;;;;19.54;71.01;94650.09;5055374;28;20163;-84
2022/05/28 05:14:46;;;;;;;18.77;6.05;;;;;;;19.77;71.36;94662.03;5055119;28;20178;-84
2022/05/28 05:17:12;;;;;;;20.83;7.90;;;;;;;20.00;70.83;94643.75;5055061;28;20574;-83
2022/05/28 05:19:37;;;;;;;12.98;5.35;;;;;;;20.82;68.15;94677.00;5055171;28;20171;-84
2022/05/28 05:22:03;;;;;;;16.02;5.50;;;;;;;21.08;66.25;94654.31;5055184;28;20171;-83
2022/05/28 05:24:28;;;;;;;30.95;19.00;;;;;;;21.58;66.25;94698.59;5055418;28;20260;-83
2022/05/28 05:26:53;;;;;;;24.70;9.50;;;;;;;21.46;64.89;94671.38;5054825;28;20226;-83
2022/05/28 05:29:19;;;;;;;11.25;5.47;;;;;;;21.62;66.21;94706.88;5054904;28;20171;-83
2022/05/28 05:31:44;;;;;;;10.43;3.50;;;;;;;21.56;65.46;94714.16;5054891;28;20254;-83
2022/05/28 05:34:10;;;;;;;17.42;5.32;;;;;;;21.53;66.15;94720.09;5036902;28;20178;-82
2022/05/28 05:36:36;;;;;;;12.98;6.15;;;;;;;21.33;66.68;94675.53;5055269;28;20246;-81
2022/05/28 05:39:02;;;;;;;9.88;5.45;;;;;;;21.74;65.48;94702.72;5045936;28;20199;-81
2022/05/28 05:41:28;;;;;;;11.77;4.30;;;;;;;22.07;64.94;94714.44;5054680;28;20179;-81
2022/05/28 05:43:53;;;;;;;9.60;3.60;;;;;;;22.61;62.67;94701.69;5054663;28;20562;-81
2022/05/28 05:46:19;;;;;;;13.63;6.18;;;;;;;23.26;61.15;94703.41;5036800;28;20266;-82
2022/05/28 05:48:44;;;;;;;8.15;3.15;;;;;;;23.35;60.89;94700.09;5054676;28;20271;-82
2022/05/28 05:51:16;;;;;;;8.85;4.72;;;;;;;23.27;60.25;94704.22;5054488;28;20650;-81
2022/05/28 05:53:42;;;;;;;10.63;4.18;;;;;;;23.17;60.47;94691.75;5054292;28;20179;-82
2022/05/28 05:56:09;;;;;;;18.42;5.28;;;;;;;23.27;60.75;94666.59;5054350;28;20193;-82
2022/05/28 05:58:35;;;;;;;12.70;4.53;;;;;;;23.66;60.15;94644.72;5054334;28;20633;-82
2022/05/28 06:01:02;;;;;;;8.02;3.75;;;;;;;24.54;56.56;94700.00;5036399;28;20182;-81
2022/05/28 06:03:28;;;;;;;8.40;4.07;;;;;;;24.36;56.19;94655.97;5054402;28;20207;-80
2022/05/28 06:06:02;;;;;;;10.07;3.67;;;;;;;25.04;54.42;94684.63;5033778;28;20190;-80
2022/05/28 06:08:28;;;;;;;9.85;3.15;;;;;;;25.26;53.81;94672.22;5048013;28;20167;-81
2022/05/28 06:10:54;;;;;;;7.88;3.10;;;;;;;25.36;52.77;94670.09;5053700;28;20201;-82
2022/05/28 06:13:19;;;;;;;6.82;3.25;;;;;;;25.83;51.54;94641.66;5050737;28;20207;-81
2022/05/28 06:15:45;;;;;;;10.40;3.63;;;;;;;26.35;50.53;94631.03;5047374;28;20178;-80
2022/05/28 06:18:15;;;;;;;6.03;2.80;;;;;;;27.02;48.52;94669.22;5051301;28;20195;-80
2022/05/28 06:20:41;;;;;;;6.60;3.10;;;;;;;27.32;48.30;94670.16;5051458;28;20182;-79
2022/05/28 06:23:06;;;;;;;10.70;4.38;;;;;;;27.41;47.25;94646.59;5052398;28;20175;-79
2022/05/28 06:25:32;;;;;;;8.07;3.10;;;;;;;27.63;47.81;94645.59;5054399;28;20246;-79
2022/05/28 06:27:58;;;;;;;9.07;3.63;;;;;;;27.37;46.73;94610.50;5045705;28;20651;-80
2022/05/28 06:30:27;;;;;;;11.50;3.95;;;;;;;27.75;45.88;94650.34;5045114;28;20198;-80
2022/05/28 06:32:52;;;;;;;12.00;4.97;;;;;;;27.42;45.86;94637.34;5044155;28;20171;-82
2022/05/28 06:35:18;;;;;;;10.02;3.80;;;;;;;27.58;47.38;94626.84;5054316;28;21733;-83
2022/05/28 06:37:43;;;;;;;9.15;3.78;;;;;;;27.96;46.59;94626.03;5053684;28;20191;-83
2022/05/28 06:40:09;;;;;;;5.63;2.97;;;;;;;27.96;45.92;94648.50;5046661;28;20175;-83
2022/05/28 06:42:34;;;;;;;7.88;3.38;;;;;;;27.95;45.96;94635.28;5031757;28;20186;-84
2022/05/28 06:45:00;;;;;;;11.98;3.42;;;;;;;28.01;46.36;94625.88;5051511;28;20191;-82
2022/05/28 06:47:26;;;;;;;9.40;4.07;;;;;;;27.86;47.16;94613.69;5050215;28;20187;-82
2022/05/28 06:52:36;;;;;;;14.02;3.90;;;;;;;26.96;48.47;94619.16;5043585;28;20602;-80
2022/05/28 06:55:03;;;;;;;15.18;4.13;;;;;;;26.76;49.48;94617.06;5049121;28;20195;-81
2022/05/28 06:57:28;;;;;;;9.23;3.60;;;;;;;26.58;50.95;94600.06;5050040;28;20195;-82
2022/05/28 06:59:54;;;;;;;10.80;4.13;;;;;;;26.73;51.25;94603.38;5048322;28;20725;-82
2022/05/28 07:02:19;;;;;;;7.13;4.22;;;;;;;26.83;50.17;94589.56;5051288;28;20181;-81
2022/05/28 07:04:45;;;;;;;10.98;3.75;;;;;;;27.23;48.59;94579.38;5051124;28;20680;-83
2022/05/28 07:07:11;;;;;;;6.25;3.83;;;;;;;27.43;47.11;94586.75;5040748;28;20175;-81
2022/05/28 07:09:36;;;;;;;6.50;4.00;;;;;;;27.47;48.01;94563.38;5046025;28;20232;-82
2022/05/28 07:12:02;;;;;;;11.98;4.22;;;;;;;27.77;47.98;94583.16;5042782;28;20180;-81
2022/05/28 07:14:27;;;;;;;10.90;4.72;;;;;;;27.66;49.30;94541.38;5046516;28;20175;-82
2022/05/28 07:16:52;;;;;;;10.60;3.97;;;;;;;27.88;47.89;94584.38;5026162;28;20202;-83
2022/05/28 07:19:18;;;;;;;9.35;4.88;;;;;;;27.46;48.28;94585.31;5044457;28;20819;-78
2022/05/28 07:21:43;;;;;;;7.88;4.20;;;;;;;27.17;47.99;94567.91;5050278;28;20261;-79
2022/05/28 07:24:09;;;;;;;14.32;4.75;;;;;;;27.35;48.22;94585.69;5041543;28;20214;-79
2022/05/28 07:26:34;;;;;;;17.38;5.03;;;;;;;27.32;48.95;94585.53;5048509;28;20227;-80
2022/05/28 07:28:59;;;;;;;12.45;4.53;;;;;;;27.46;47.42;94585.31;5050732;28;20254;-81
2022/05/28 07:31:25;;;;;;;8.93;4.15;;;;;;;27.74;46.60;94586.53;5044980;28;20582;-79
2022/05/28 07:33:50;;;;;;;10.20;4.22;;;;;;;27.70;46.93;94577.47;5044125;28;20183;-79
2022/05/28 07:36:21;;;;;;;7.05;4.07;;;;;;;27.88;46.64;94575.47;5047415;28;20178;-79
2022/05/28 07:38:47;;;;;;;10.68;3.50;;;;;;;27.83;48.07;94575.66;5048677;28;20221;-79
2022/05/28 07:41:15;;;;;;;10.75;3.80;;;;;;;27.97;47.91;94587.84;5050656;28;20255;-79
2022/05/28 07:43:41;;;;;;;8.95;3.35;;;;;;;28.10;44.44;94584.13;5048127;28;20683;-79
2022/05/28 07:46:15;;;;;;;8.27;3.83;;;;;;;28.48;43.07;94585.94;5044718;28;20179;-79
2022/05/28 07:48:41;;;;;;;7.72;3.25;;;;;;;28.77;45.13;94572.34;5028974;28;20256;-78
2022/05/28 07:51:07;;;;;;;9.45;3.67;;;;;;;29.11;42.89;94565.00;5042859;28;20179;-79
2022/05/28 07:53:33;;;;;;;8.15;3.95;;;;;;;29.71;43.20;94577.94;5041243;28;20187;-79
2022/05/28 07:56:05;;;;;;;7.65;3.30;;;;;;;29.88;42.14;94564.13;5038858;28;20175;-79
2022/05/28 07:58:31;;;;;;;9.90;4.20;;;;;;;29.94;41.68;94578.28;5042430;28;20282;-78
2022/05/28 08:00:57;;;;;;;8.13;3.47;;;;;;;29.60;42.32;94572.16;5038291;28;20262;-79
2022/05/28 08:03:23;;;;;;;10.43;4.15;;;;;;;29.54;43.27;94570.78;5042188;28;20199;-80
2022/05/28 08:05:50;;;;;;;11.98;4.00;;;;;;;29.50;41.81;94544.66;5043093;28;21870;-79
2022/05/28 08:08:18;;;;;;;8.20;3.80;;;;;;;29.74;42.49;94557.47;5044826;28;20948;-79
2022/05/28 08:10:43;;;;;;;12.55;5.38;;;;;;;29.98;41.69;94542.00;5045765;28;20171;-79
2022/05/28 08:13:11;;;;;;;13.82;4.05;;;;;;;30.32;41.82;94561.63;5042390;28;20552;-79
2022/05/28 08:15:39;;;;;;;8.82;3.88;;;;;;;30.36;42.56;94560.59;5040241;28;20831;-79
2022/05/28 08:18:05;;;;;;;8.00;4.32;;;;;;;30.38;43.12;94541.22;5044378;28;20212;-80
2022/05/28 08:23:15;;;;;;;11.82;4.60;;;;;;;30.49;43.18;94552.41;5042174;28;20201;-79
2022/05/28 08:25:41;;;;;;;13.05;4.38;;;;;;;30.26;42.66;94544.78;5047705;28;20223;-77
2022/05/28 08:28:11;;;;;;;17.58;4.55;;;;;;;29.98;43.15;94568.34;5041647;28;20638;-80
2022/05/28 08:30:38;;;;;;;9.13;3.95;;;;;;;29.67;44.71;94555.28;5022135;28;20182;-79
2022/05/28 08:33:05;;;;;;;10.60;3.90;;;;;;;29.06;45.86;94549.72;5048450;28;20224;-80
2022/05/28 08:35:30;;;;;;;13.05;4.72;;;;;;;28.76;46.97;94543.66;5043415;28;20654;-80
2022/05/28 08:37:56;;;;;;;8.55;4.13;;;;;;;28.77;48.75;94547.16;5042735;28;20248;-80
2022/05/28 08:40:23;;;;;;;13.43;4.38;;;;;;;28.77;48.37;94523.56;5042910;28;20175;-80
2022/05/28 08:42:50;;;;;;;12.68;6.20;;;;;;;29.14;48.49;94548.09;5042197;28;20177;-79
2022/05/28 08:45:17;;;;;;;12.80;4.57;;;;;;;29.44;51.70;94549.53;5041225;28;20179;-79
2022/05/28 08:47:46;;;;;;;17.88;8.02;;;;;;;29.97;48.18;94551.25;5044106;28;20227;-79
2022/05/28 08:50:12;;;;;;;10.32;4.40;;;;;;;30.34;47.18;94545.78;5042504;28;20178;-79
2022/05/28 08:52:47;;;;;;;10.40;4.35;;;;;;;30.64;44.34;94549.00;5043050;28;20175;-80
2022/05/28 08:55:18;;;;;;;12.82;4.95;;;;;;;30.82;45.47;94527.75;5039033;28;20183;-81
2022/05/28 08:58:02;;;;;;;10.15;3.72;;;;;;;31.02;44.76;94543.88;5026936;28;20214;-81
2022/05/28 09:00:46;;;;;;;7.78;3.72;;;;;;;31.10;42.79;94545.66;5024370;28;20618;-80
2022/05/28 09:03:22;;;;;;;8.18;3.83;;;;;;;31.10;44.46;94545.66;5041980;28;20175;-81
2022/05/28 09:05:47;;;;;;;11.80;4.25;;;;;;;30.99;43.90;94544.53;5045364;28;20171;-77
2022/05/28 09:08:16;;;;;;;12.13;4.70;;;;;;;30.81;45.08;94501.69;5040499;28;20182;-78
2022/05/28 09:10:46;;;;;;;9.57;4.18;;;;;;;30.81;43.36;94540.53;5046288;28;20654;-78
2022/05/28 09:13:39;;;;;;;8.43;4.13;;;;;;;30.82;44.19;94525.81;5046443;28;20174;-79
2022/05/28 09:16:07;;;;;;;11.88;4.20;;;;;;;30.90;43.91;94530.31;5029723;28;20191;-80
2022/05/28 09:18:38;;;;;;;14.38;4.30;;;;;;;30.89;44.07;94512.41;5041850;28;20222;-80
2022/05/28 09:21:05;;;;;;;11.65;3.80;;;;;;;30.94;44.98;94509.47;5026569;28;21003;-79
2022/05/28 09:23:43;;;;;;;7.80;3.67;;;;;;;30.93;41.72;94516.03;5045072;28;20167;-79
2022/05/28 09:26:09;;;;;;;10.95;4.13;;;;;;;30.17;45.72;94489.78;5042866;28;20656;-76
2022/05/28 09:28:44;;;;;;;19.05;5.65;;;;;;;30.15;42.70;94513.78;5033821;28;20186;-77
2022/05/28 09:31:29;;;;;;;8.05;3.58;;;;;;;29.43;44.84;94482.81;5052896;28;20179;-77
2022/05/28 09:34:02;;;;;;;10.35;4.15;;;;;;;29.39;44.09;94506.34;5040901;28;20179;-78
2022/05/28 09:36:55;;;;;;;16.65;3.90;;;;;;;29.36;44.18;94504.28;5053919;28;20183;-77
2022/05/28 09:39:44;;;;;;;11.50;4.63;;;;;;;29.26;46.31;94494.66;5051381;28;20194;-77
2022/05/28 09:42:24;;;;;;;10.80;3.42;;;;;;;29.39;45.18;94497.41;5048146;28;20179;-77
2022/05/28 09:45:18;;;;;;;10.70;3.72;;;;;;;29.43;45.71;94482.81;5052137;28;20248;-78
2022/05/28 09:47:46;;;;;;;13.50;3.72;;;;;;;29.57;46.87;94482.50;5052529;28;20174;-79
2022/05/28 09:50:30;;;;;;;10.95;4.50;;;;;;;29.27;43.74;94452.84;5051074;28;20178;-79
2022/05/28 09:56:13;;;;;;;15.48;4.65;;;;;;;28.80;46.06;94467.91;5053911;28;20182;-78
2022/05/28 09:59:22;;;;;;;10.25;3.78;;;;;;;28.53;47.01;94442.19;5067217;28;20210;-82
2022/05/28 10:01:56;;;;;;;10.98;3.92;;;;;;;28.59;46.33;94461.72;5020384;28;20198;-82
2022/05/28 10:04:31;;;;;;;10.85;3.88;;;;;;;28.38;47.04;94459.81;5030657;28;20567;-82
2022/05/28 10:07:00;;;;;;;11.00;4.05;;;;;;;28.06;46.89;94425.38;5012621;28;20256;-85
2022/05/28 10:09:46;;;;;;;8.95;3.90;;;;;;;27.93;48.62;94419.13;5034158;28;20175;-83
2022/05/28 10:12:22;;;;;;;9.27;3.58;;;;;;;28.07;47.35;94424.25;5034342;28;20847;-84
2022/05/28 10:14:59;;;;;;;12.88;4.45;;;;;;;28.26;46.30;94462.50;5016384;28;20258;-84
2022/05/28 10:17:26;;;;;;;11.43;4.22;;;;;;;27.96;47.63;94426.56;5034460;28;20188;-84
2022/05/28 10:19:54;;;;;;;12.23;4.22;;;;;;;28.05;47.84;94437.31;5004330;28;20195;-84
2022/05/28 10:22:21;;;;;;;15.88;4.50;;;;;;;28.17;49.06;94442.03;5032406;28;20179;-84
2022/05/28 10:25:22;;;;;;;8.50;3.40;;;;;;;28.17;48.53;94434.69;5015718;28;20270;-82
2022/05/28 10:27:52;;;;;;;11.27;3.97;;;;;;;28.33;47.42;94438.38;5032700;28;20188;-80
2022/05/28 10:30:34;;;;;;;10.70;4.80;;;;;;;28.00;47.42;94391.50;5012447;28;20238;-82
2022/05/28 10:33:06;;;;;;;9.98;4.72;;;;;;;28.29;46.84;94420.41;5025201;28;20251;-80
2022/05/28 10:35:31;;;;;;;8.32;4.15;;;;;;;28.19;46.52;94407.31;5016893;28;20702;-80
2022/05/28 10:38:26;;;;;;;11.52;3.78;;;;;;;28.28;48.67;94429.69;5022590;28;20278;-79
2022/05/28 10:40:54;;;;;;;12.88;4.25;;;;;;;28.21;47.02;94410.44;5032272;28;20195;-82
2022/05/28 10:43:37;;;;;;;13.77;4.50;;;;;;;27.92;47.31;94378.84;5027607;28;20176;-82
2022/05/28 10:46:14;;;;;;;10.68;3.85;;;;;;;28.05;47.93;94411.03;5028834;28;20180;-81
2022/05/28 10:49:01;;;;;;;10.18;3.88;;;;;;;28.18;46.97;94419.25;5010296;28;20614;-82
2022/05/28 10:52:15;;;;;;;7.47;3.85;;;;;;;28.39;48.47;94404.53;5033265;28;20167;-80
2022/05/28 10:54:46;;;;;;;10.50;4.03;;;;;;;28.77;47.92;94406.25;4987569;28;20189;-80
2022/05/28 10:57:36;;;;;;;7.18;4.00;;;;;;;28.96;44.74;94413.84;4981951;28;20188;-80
2022/05/28 11:00:13;;;;;;;12.63;5.00;;;;;;;29.04;45.16;94411.03;4994465;28;20194;-80
2022/05/28 11:03:10;;;;;;;11.38;4.15;;;;;;;29.12;45.62;94409.34;5008653;28;20188;-79
2022/05/28 11:06:18;;;;;;;11.35;5.00;;;;;;;28.94;46.68;94392.50;5006980;28;20554;-80
2022/05/28 11:08:46;;;;;;;12.05;4.03;;;;;;;28.90;46.04;94400.50;5024122;28;20431;-79
2022/05/28 11:11:23;;;;;;;19.13;5.03;;;;;;;28.29;45.26;94342.66;5029083;28;20183;-80
2022/05/28 11:14:16;;;;;;;10.40;4.93;;;;;;;28.35;46.55;94392.00;5020515;28;20574;-79
2022/05/28 11:17:03;;;;;;;13.35;4.97;;;;;;;28.07;47.89;94389.84;5028128;28;20171;-80
2022/05/28 11:19:31;;;;;;;12.75;4.15;;;;;;;27.70;48.56;94385.38;5022179;28;20203;-79
2022/05/28 11:22:11;;;;;;;15.35;5.10;;;;;;;27.72;47.82;94383.13;5021070;28;20180;-79
2022/05/28 11:24:55;;;;;;;10.50;4.10;;;;;;;27.86;48.89;94366.63;5015729;28;20187;-79
2022/05/28 11:27:45;;;;;;;13.38;4.43;;;;;;;27.97;48.05;94363.19;5009143;28;20234;-79
2022/05/28 11:30:22;;;;;;;10.55;4.13;;;;;;;27.61;46.78;94350.28;5003003;28;20300;-79
2022/05/28 11:33:22;;;;;;;13.68;4.68;;;;;;;27.77;46.54;94375.59;5023230;28;20571;-79
2022/05/28 11:36:12;;;;;;;9.30;3.83;;;;;;;27.82;47.06;94369.22;5019383;28;20249;-79
2022/05/28 11:38:57;;;;;;;13.35;4.70;;;;;;;27.62;47.28;94351.84;5032538;28;20203;-80
2022/05/28 11:41:22;;;;;;;8.90;4.13;;;;;;;27.65;46.94;94359.31;5010599;28;20275;-81
2022/05/28 11:43:52;;;;;;;11.23;4.57;;;;;;;27.66;47.35;94352.00;5033232;28;20676;-81
2022/05/28 11:46:56;;;;;;;15.75;4.95;;;;;;;27.78;47.28;94352.84;5031245;28;20237;-82
2022/05/28 11:52:21;;;;;;;14.60;4.25;;;;;;;27.50;47.15;94365.31;5038332;28;20245;-80
2022/05/28 11:54:51;;;;;;;9.55;4.53;;;;;;;27.39;47.33;94351.38;5034527;28;20164;-82